Time;durP1;ratioP1;P1;durP2;ratioP2;P2;SDS_P1;SDS_P2;PMS_P1;PMS_P2;Temp;Humidity;BMP_temperature;BMP_pressure;BME280_temperature;BME280_humidity;BME280_pressure;Samples;Min_cycle;Max_cycle;Signal;HPM_P1;HPM_P2
2024/04/11 00:00:12;;;;;;;12.90;8.05;;;;;;;;;;10864749;26;20454;-65
2024/04/11 00:05:07;;;;;;;11.88;8.40;;;;;;;;;;10871711;26;20007;-66
2024/04/11 00:10:01;;;;;;;9.30;8.38;;;;;;;;;;10850976;26;20003;-66
2024/04/11 00:14:54;;;;;;;9.25;8.27;;;;;;;;;;10862096;26;20396;-66
2024/04/11 00:19:50;;;;;;;9.57;8.05;;;;;;;;;;10852519;26;20019;-66
2024/04/11 00:24:48;;;;;;;9.75;7.88;;;;;;;;;;10879333;26;20304;-66
2024/04/11 00:29:42;;;;;;;7.68;6.88;;;;;;;;;;10867314;26;20014;-66
2024/04/11 00:34:38;;;;;;;8.85;8.02;;;;;;;;;;10861807;26;20448;-66
2024/04/11 00:39:32;;;;;;;7.20;6.35;;;;;;;;;;10867520;26;20021;-66
2024/04/11 00:44:29;;;;;;;11.02;6.45;;;;;;;;;;10854072;26;20004;-65
2024/04/11 00:49:24;;;;;;;11.48;7.22;;;;;;;;;;10857680;26;20018;-66
2024/04/11 00:54:20;;;;;;;10.45;8.00;;;;;;;;;;10846433;26;20003;-66
2024/04/11 00:59:16;;;;;;;7.47;6.78;;;;;;;;;;10865593;26;20004;-66
2024/04/11 01:04:10;;;;;;;7.50;6.30;;;;;;;;;;10866684;26;20917;-66
2024/04/11 01:09:07;;;;;;;12.05;6.63;;;;;;;;;;10857091;26;20011;-66
2024/04/11 01:14:01;;;;;;;8.70;5.82;;;;;;;;;;10852605;26;20628;-66
2024/04/11 01:18:55;;;;;;;6.72;5.55;;;;;;;;;;10868332;26;20003;-67
2024/04/11 01:23:51;;;;;;;7.03;5.68;;;;;;;;;;10858801;26;20439;-66
2024/04/11 01:28:45;;;;;;;8.00;5.63;;;;;;;;;;10868614;26;20026;-66
2024/04/11 01:33:40;;;;;;;5.70;5.13;;;;;;;;;;10874561;26;20003;-67
2024/04/11 01:38:35;;;;;;;5.85;5.25;;;;;;;;;;10876861;26;20003;-66
2024/04/11 01:43:29;;;;;;;6.97;6.30;;;;;;;;;;10890198;26;19995;-67
2024/04/11 01:48:24;;;;;;;5.50;4.95;;;;;;;;;;10860513;26;20019;-67
2024/04/11 01:53:19;;;;;;;6.45;4.88;;;;;;;;;;10873630;26;20423;-67
2024/04/11 01:58:35;;;;;;;5.95;4.35;;;;;;;;;;10877063;26;20003;-67
2024/04/11 02:03:33;;;;;;;6.03;5.28;;;;;;;;;;10864859;26;19998;-66
2024/04/11 02:08:27;;;;;;;;;;;;;;;;;;10864256;26;20512;-66
2024/04/11 02:13:21;;;;;;;4.70;4.07;;;;;;;;;;10877657;26;19925;-66
2024/04/11 02:18:15;;;;;;;6.00;4.40;;;;;;;;;;10856892;26;20000;-66
2024/04/11 02:23:09;;;;;;;5.25;4.60;;;;;;;;;;10867265;26;20010;-67
2024/04/11 02:28:05;;;;;;;6.22;4.15;;;;;;;;;;10875674;26;20032;-67
2024/04/11 02:33:00;;;;;;;5.30;4.28;;;;;;;;;;10865546;26;20011;-66
2024/04/11 02:37:54;;;;;;;5.65;4.13;;;;;;;;;;10853938;26;20003;-66
2024/04/11 02:42:48;;;;;;;4.45;4.05;;;;;;;;;;10856187;26;20011;-67
2024/04/11 02:47:42;;;;;;;4.63;4.22;;;;;;;;;;10849123;26;20021;-67
2024/04/11 02:52:40;;;;;;;4.30;3.75;;;;;;;;;;10879943;26;20000;-66
2024/04/11 02:57:35;;;;;;;4.20;3.78;;;;;;;;;;10865229;26;20075;-66
2024/04/11 03:02:33;;;;;;;5.05;3.72;;;;;;;;;;10857457;26;20004;-67
2024/04/11 03:07:29;;;;;;;4.60;4.00;;;;;;;;;;10868063;26;20022;-66
2024/04/11 03:12:23;;;;;;;4.30;3.80;;;;;;;;;;10906657;26;20333;-66
2024/04/11 03:17:17;;;;;;;5.15;4.00;;;;;;;;;;10868751;26;20018;-66
2024/04/11 03:22:12;;;;;;;6.65;4.32;;;;;;;;;;10884840;26;20017;-66
2024/04/11 03:27:07;;;;;;;10.57;3.67;;;;;;;;;;10853245;26;20003;-67
2024/04/11 03:32:02;;;;;;;4.03;3.65;;;;;;;;;;10869853;26;20401;-66
2024/04/11 03:36:56;;;;;;;3.53;3.20;;;;;;;;;;10866673;26;20007;-66
2024/04/11 03:41:52;;;;;;;4.13;3.72;;;;;;;;;;10871912;26;20014;-67
2024/04/11 03:46:47;;;;;;;6.28;3.42;;;;;;;;;;10872009;26;20075;-66
2024/04/11 03:51:44;;;;;;;5.03;3.95;;;;;;;;;;10858350;26;20304;-66
2024/04/11 03:56:39;;;;;;;4.22;3.75;;;;;;;;;;10858934;26;20017;-66
2024/04/11 04:01:34;;;;;;;5.95;4.28;;;;;;;;;;10870939;26;19999;-66
2024/04/11 04:06:48;;;;;;;4.35;3.75;;;;;;;;;;10881734;26;20003;-67
2024/04/11 04:11:41;;;;;;;4.47;4.00;;;;;;;;;;10868560;26;20487;-65
2024/04/11 04:16:38;;;;;;;5.75;3.70;;;;;;;;;;10862559;26;20017;-66
2024/04/11 04:21:34;;;;;;;4.35;3.85;;;;;;;;;;10862106;26;20018;-66
2024/04/11 04:26:32;;;;;;;4.85;4.35;;;;;;;;;;10864111;26;20003;-66
2024/04/11 04:31:31;;;;;;;4.50;3.75;;;;;;;;;;10847979;26;20003;-66
2024/04/11 04:36:40;;;;;;;4.35;3.95;;;;;;;;;;10856789;26;20000;-66
2024/04/11 04:41:35;;;;;;;12.02;4.60;;;;;;;;;;10852812;26;20339;-69
2024/04/11 04:46:32;;;;;;;5.50;4.45;;;;;;;;;;10897148;26;20007;-68
2024/04/11 04:51:27;;;;;;;5.93;4.72;;;;;;;;;;10875070;26;20011;-68
2024/04/11 04:56:22;;;;;;;4.40;4.00;;;;;;;;;;10893995;26;20003;-68
2024/04/11 05:01:17;;;;;;;7.25;4.35;;;;;;;;;;10904138;26;20014;-68
2024/04/11 05:06:13;;;;;;;4.10;3.70;;;;;;;;;;10905138;26;20075;-67
2024/04/11 05:11:11;;;;;;;4.93;4.20;;;;;;;;;;10908606;26;20375;-69
2024/04/11 05:16:08;;;;;;;4.35;3.95;;;;;;;;;;10913425;26;20014;-68
2024/04/11 05:21:02;;;;;;;5.32;3.97;;;;;;;;;;10893845;26;20072;-68
2024/04/11 05:25:57;;;;;;;4.20;3.33;;;;;;;;;;10890081;26;20017;-69
2024/04/11 05:30:51;;;;;;;4.25;3.83;;;;;;;;;;10902673;26;20011;-69
2024/04/11 05:35:46;;;;;;;6.25;3.53;;;;;;;;;;10899394;26;20400;-68
2024/04/11 05:40:41;;;;;;;7.63;3.55;;;;;;;;;;10902924;26;20344;-67
2024/04/11 05:45:35;;;;;;;4.93;4.25;;;;;;;;;;10898244;26;20007;-67
2024/04/11 05:50:30;;;;;;;4.18;3.30;;;;;;;;;;10898767;26;20519;-67
2024/04/11 05:55:24;;;;;;;4.32;3.92;;;;;;;;;;10902139;26;20006;-67
2024/04/11 06:00:22;;;;;;;5.90;4.43;;;;;;;;;;10891014;26;19999;-67
2024/04/11 06:05:16;;;;;;;4.90;3.85;;;;;;;;;;10901580;26;20466;-67
2024/04/11 06:10:11;;;;;;;5.78;3.55;;;;;;;;;;10901157;26;20007;-67
2024/04/11 06:15:07;;;;;;;6.97;3.60;;;;;;;;;;10910138;26;20087;-67
2024/04/11 06:20:03;;;;;;;4.50;3.25;;;;;;;;;;10891513;26;19995;-66
2024/04/11 06:24:57;;;;;;;3.60;2.90;;;;;;;;;;10902159;26;20081;-65
2024/04/11 06:29:52;;;;;;;4.65;2.90;;;;;;;;;;10905041;26;20017;-66
2024/04/11 06:34:52;;;;;;;3.55;3.03;;;;;;;;;;10903964;26;20017;-66
2024/04/11 06:39:48;;;;;;;3.25;2.95;;;;;;;;;;10906848;26;20347;-65
2024/04/11 06:44:45;;;;;;;5.15;4.65;;;;;;;;;;10907786;26;20003;-66
2024/04/11 06:49:40;;;;;;;4.40;3.53;;;;;;;;;;10906983;26;20007;-66
2024/04/11 06:54:43;;;;;;;4.88;4.40;;;;;;;;;;10897428;26;20011;-66
2024/04/11 06:59:38;;;;;;;4.53;3.40;;;;;;;;;;10845125;26;19999;-66
2024/04/11 07:04:32;;;;;;;3.50;3.20;;;;;;;;;;10869392;26;20030;-66
2024/04/11 07:09:37;;;;;;;4.53;2.85;;;;;;;;;;10846026;26;20014;-66
2024/04/11 07:14:31;;;;;;;3.75;3.38;;;;;;;;;;10859752;26;20011;-67
2024/04/11 07:19:27;;;;;;;4.15;2.97;;;;;;;;;;10859331;26;20003;-65
2024/04/11 07:24:23;;;;;;;10.40;3.30;;;;;;;;;;10874656;26;20010;-67
2024/04/11 07:29:18;;;;;;;4.53;3.13;;;;;;;;;;10858452;26;20004;-71
2024/04/11 07:34:14;;;;;;;2.90;2.70;;;;;;;;;;10870176;26;20525;-69
2024/04/11 07:39:09;;;;;;;5.28;2.90;;;;;;;;;;10859880;26;20012;-70
2024/04/11 07:44:05;;;;;;;3.35;2.55;;;;;;;;;;10854117;26;20076;-71
2024/04/11 07:48:59;;;;;;;3.78;3.22;;;;;;;;;;10866032;26;20013;-69
2024/04/11 07:53:53;;;;;;;4.05;2.90;;;;;;;;;;10843980;26;20018;-70
2024/04/11 07:58:49;;;;;;;5.20;2.70;;;;;;;;;;10838971;26;20003;-71
2024/04/11 08:03:46;;;;;;;2.97;2.65;;;;;;;;;;10850678;26;20390;-71
2024/04/11 08:08:40;;;;;;;4.28;2.67;;;;;;;;;;10848905;26;20103;-72
2024/04/11 08:13:34;;;;;;;4.93;2.22;;;;;;;;;;10848048;26;20011;-71
2024/04/11 08:18:34;;;;;;;4.53;2.88;;;;;;;;;;10844683;26;20463;-71
2024/04/11 08:23:29;;;;;;;5.20;2.65;;;;;;;;;;10865818;26;20011;-72
2024/04/11 08:28:23;;;;;;;7.97;3.55;;;;;;;;;;10855459;26;20019;-72
2024/04/11 08:33:20;;;;;;;9.32;2.80;;;;;;;;;;10855589;26;20004;-72
2024/04/11 08:38:15;;;;;;;7.40;2.70;;;;;;;;;;10842513;26;20010;-71
2024/04/11 08:43:09;;;;;;;4.50;3.00;;;;;;;;;;10891533;26;20003;-73
2024/04/11 08:48:04;;;;;;;6.70;2.75;;;;;;;;;;10904072;26;20003;-72
2024/04/11 08:52:59;;;;;;;5.75;2.40;;;;;;;;;;10904566;26;20011;-72
2024/04/11 08:57:55;;;;;;;4.38;2.38;;;;;;;;;;10903531;26;20046;-70
2024/04/11 09:02:51;;;;;;;5.75;2.97;;;;;;;;;;10904779;26;20335;-71
2024/04/11 09:07:45;;;;;;;5.97;2.47;;;;;;;;;;10904334;26;20014;-70
2024/04/11 09:12:44;;;;;;;2.88;2.50;;;;;;;;;;10905402;26;20007;-66
2024/04/11 09:17:59;;;;;;;10.18;3.53;;;;;;;;;;10856003;26;20042;-66
2024/04/11 09:22:59;;;;;;;6.22;2.28;;;;;;;;;;10851937;26;20015;-66
2024/04/11 09:27:58;;;;;;;2.97;1.95;;;;;;;;;;10850748;26;20010;-66
2024/04/11 09:32:56;;;;;;;3.00;2.70;;;;;;;;;;10840011;26;20112;-65
2024/04/11 09:37:59;;;;;;;7.28;5.50;;;;;;;;;;10855055;26;20052;-67
2024/04/11 09:43:03;;;;;;;2.78;2.13;;;;;;;;;;10872586;26;19999;-65
2024/04/11 09:47:57;;;;;;;3.35;2.00;;;;;;;;;;10858489;26;20007;-66
2024/04/11 09:52:54;;;;;;;4.05;2.50;;;;;;;;;;10854827;26;19996;-66
2024/04/11 09:57:49;;;;;;;7.47;1.88;;;;;;;;;;10865426;26;19999;-67
2024/04/11 10:02:45;;;;;;;3.38;1.75;;;;;;;;;;10867771;26;20014;-66
2024/04/11 10:07:41;;;;;;;3.97;2.53;;;;;;;;;;10852538;26;20015;-67
2024/04/11 10:12:39;;;;;;;2.38;2.00;;;;;;;;;;10848153;26;20035;-66
2024/04/11 10:17:36;;;;;;;5.63;2.17;;;;;;;;;;10844989;26;19999;-67
2024/04/11 10:22:30;;;;;;;4.85;3.10;;;;;;;;;;10852504;26;20428;-67
2024/04/11 10:27:29;;;;;;;5.32;2.55;;;;;;;;;;10853422;26;20004;-67
2024/04/11 10:32:26;;;;;;;4.25;1.90;;;;;;;;;;10852400;26;20018;-67
2024/04/11 10:37:23;;;;;;;7.47;2.53;;;;;;;;;;10845913;26;20431;-67
2024/04/11 10:42:17;;;;;;;;;;;;;;;;;;10868317;26;20003;-67
2024/04/11 10:47:17;;;;;;;2.97;2.20;;;;;;;;;;10844787;26;19932;-67
2024/04/11 10:52:12;;;;;;;7.50;2.60;;;;;;;;;;10859034;26;19998;-67
2024/04/11 10:57:14;;;;;;;3.83;2.35;;;;;;;;;;10855779;26;20442;-66
2024/04/11 11:02:08;;;;;;;6.38;3.63;;;;;;;;;;10859202;26;20007;-67
2024/04/11 11:07:11;;;;;;;5.30;3.00;;;;;;;;;;10851941;26;20048;-67
2024/04/11 11:12:06;;;;;;;3.47;2.70;;;;;;;;;;10874130;26;20431;-67
2024/04/11 11:17:01;;;;;;;4.82;2.70;;;;;;;;;;10846268;26;20004;-67
2024/04/11 11:21:59;;;;;;;5.65;3.95;;;;;;;;;;10843636;26;20004;-66
2024/04/11 11:26:56;;;;;;;6.22;3.83;;;;;;;;;;10858612;26;20064;-66
2024/04/11 11:31:51;;;;;;;8.60;4.45;;;;;;;;;;10861290;26;20027;-66
2024/04/11 11:36:47;;;;;;;5.85;3.83;;;;;;;;;;10853169;26;19999;-66
2024/04/11 11:41:50;;;;;;;9.27;4.00;;;;;;;;;;10853176;26;20014;-65
2024/04/11 11:47:05;;;;;;;6.75;4.88;;;;;;;;;;10858404;26;20366;-65
2024/04/11 11:52:01;;;;;;;5.13;4.15;;;;;;;;;;10859388;26;20327;-67
2024/04/11 11:57:09;;;;;;;5.45;4.88;;;;;;;;;;10857523;26;20008;-67
2024/04/11 12:02:05;;;;;;;4.95;4.00;;;;;;;;;;10863427;26;20007;-66
2024/04/11 12:07:00;;;;;;;5.32;4.45;;;;;;;;;;10856240;26;20088;-66
2024/04/11 12:17:06;;;;;;;7.03;4.80;;;;;;;;;;10855718;26;20010;-66
2024/04/11 12:22:10;;;;;;;8.15;5.22;;;;;;;;;;10847787;26;20450;-68
2024/04/11 12:27:06;;;;;;;6.20;5.60;;;;;;;;;;10877497;26;20076;-66
2024/04/11 12:32:06;;;;;;;10.73;7.82;;;;;;;;;;10903306;26;20018;-66
2024/04/11 12:37:09;;;;;;;10.13;5.05;;;;;;;;;;10897281;26;20003;-67
2024/04/11 12:42:06;;;;;;;6.57;5.50;;;;;;;;;;10869049;26;19998;-67
2024/04/11 12:47:01;;;;;;;;;;;;;;;;;;10903969;26;20457;-67
2024/04/11 12:51:57;;;;;;;8.15;6.60;;;;;;;;;;10858685;26;19925;-66
2024/04/11 12:56:51;;;;;;;9.57;6.50;;;;;;;;;;10883835;26;20003;-66
2024/04/11 13:01:45;;;;;;;10.93;7.03;;;;;;;;;;10870486;26;20436;-66
2024/04/11 13:06:48;;;;;;;5.90;5.32;;;;;;;;;;10860193;26;20018;-66
2024/04/11 13:11:49;;;;;;;7.97;6.65;;;;;;;;;;10845283;26;20040;-67
2024/04/11 13:17:03;;;;;;;8.63;6.35;;;;;;;;;;10854108;26;20077;-67
2024/04/11 13:22:15;;;;;;;13.35;6.95;;;;;;;;;;10840379;26;20088;-66
2024/04/11 13:27:14;;;;;;;7.40;5.68;;;;;;;;;;10853728;26;20000;-67
2024/04/11 13:32:11;;;;;;;;;;;;;;;;;;10855012;26;20073;-65
2024/04/11 13:37:13;;;;;;;6.90;6.20;;;;;;;;;;10862288;26;19926;-68
2024/04/11 13:42:22;;;;;;;9.02;6.63;;;;;;;;;;10856227;26;20359;-66
2024/04/11 13:47:22;;;;;;;9.32;7.18;;;;;;;;;;10859744;26;19999;-67
2024/04/11 13:52:19;;;;;;;6.85;6.25;;;;;;;;;;10859188;26;20076;-67
2024/04/11 13:57:20;;;;;;;14.77;7.23;;;;;;;;;;10874917;26;20003;-67
2024/04/11 14:02:30;;;;;;;8.80;6.18;;;;;;;;;;10857555;26;20018;-66
2024/04/11 14:07:27;;;;;;;6.95;6.28;;;;;;;;;;10855768;26;20006;-67
2024/04/11 14:12:24;;;;;;;11.73;7.80;;;;;;;;;;10889114;26;20010;-66
2024/04/11 14:17:22;;;;;;;7.43;6.55;;;;;;;;;;10863147;26;20048;-66
2024/04/11 14:22:47;;;;;;;7.38;6.00;;;;;;;;;;10756239;26;20004;-66
2024/04/11 14:27:43;;;;;;;9.13;5.95;;;;;;;;;;10754188;26;20042;-66
2024/04/11 14:33:12;;;;;;;8.27;7.47;;;;;;;;;;10754838;26;20433;-66
2024/04/11 14:38:06;;;;;;;11.15;7.40;;;;;;;;;;10767719;26;20004;-66
2024/04/11 14:43:09;;;;;;;11.23;7.45;;;;;;;;;;10855024;26;20018;-66
2024/04/11 14:48:15;;;;;;;9.43;7.30;;;;;;;;;;10858386;26;20013;-66
2024/04/11 14:53:10;;;;;;;9.80;6.93;;;;;;;;;;10863292;26;20009;-67
2024/04/11 14:58:07;;;;;;;9.00;8.05;;;;;;;;;;10854889;26;21830;-66
2024/04/11 15:03:01;;;;;;;8.75;7.85;;;;;;;;;;10861661;26;20002;-67
2024/04/11 15:07:57;;;;;;;8.70;7.05;;;;;;;;;;10861758;26;20013;-66
2024/04/11 15:12:51;;;;;;;9.98;7.55;;;;;;;;;;10854506;26;20038;-66
2024/04/11 15:17:59;;;;;;;8.77;6.38;;;;;;;;;;10867074;26;19999;-66
2024/04/11 15:22:57;;;;;;;10.03;7.30;;;;;;;;;;10861032;26;19999;-66
2024/04/11 15:27:56;;;;;;;10.73;7.03;;;;;;;;;;10858621;26;20087;-66
2024/04/11 15:32:56;;;;;;;8.07;7.28;;;;;;;;;;10852054;26;20013;-67
2024/04/11 15:37:56;;;;;;;10.43;8.15;;;;;;;;;;10845158;26;20042;-66
2024/04/11 15:42:55;;;;;;;9.05;7.57;;;;;;;;;;10865025;26;20000;-67
2024/04/11 15:47:51;;;;;;;6.85;5.90;;;;;;;;;;10860435;26;20010;-67
2024/04/11 15:52:44;;;;;;;8.45;6.78;;;;;;;;;;10873075;26;20011;-67
2024/04/11 15:57:42;;;;;;;12.15;6.18;;;;;;;;;;10860807;26;20003;-66
2024/04/11 16:03:02;;;;;;;7.85;6.72;;;;;;;;;;10865666;26;20071;-66
2024/04/11 16:08:09;;;;;;;8.32;6.30;;;;;;;;;;10861301;26;20012;-67
2024/04/11 16:13:27;;;;;;;10.75;7.18;;;;;;;;;;10873060;26;20003;-67
2024/04/11 16:18:26;;;;;;;10.60;7.85;;;;;;;;;;10861323;26;20015;-65
2024/04/11 16:23:20;;;;;;;7.00;6.30;;;;;;;;;;10862307;26;20000;-66
2024/04/11 16:28:15;;;;;;;11.68;6.40;;;;;;;;;;10857255;26;20007;-66
2024/04/11 16:33:10;;;;;;;8.10;7.32;;;;;;;;;;10849630;26;20014;-66
2024/04/11 16:38:08;;;;;;;11.00;7.00;;;;;;;;;;10848032;26;20073;-66
2024/04/11 16:43:03;;;;;;;9.18;6.55;;;;;;;;;;10853264;26;20004;-66
2024/04/11 16:47:58;;;;;;;10.90;7.43;;;;;;;;;;10854518;26;20018;-65
2024/04/11 16:52:56;;;;;;;10.32;8.35;;;;;;;;;;10848613;26;20003;-66
2024/04/11 16:58:02;;;;;;;6.70;6.03;;;;;;;;;;10858027;26;20080;-67
2024/04/11 17:02:59;;;;;;;8.35;6.05;;;;;;;;;;10852756;26;20006;-67
2024/04/11 17:07:54;;;;;;;16.65;6.25;;;;;;;;;;10851648;26;20370;-65
2024/04/11 17:12:50;;;;;;;10.10;6.30;;;;;;;;;;10857794;26;20327;-66
2024/04/11 17:18:07;;;;;;;12.40;5.30;;;;;;;;;;10853455;26;20007;-66
2024/04/11 17:27:57;;;;;;;7.75;5.50;;;;;;;;;;10845720;26;20075;-66
2024/04/11 17:33:09;;;;;;;11.53;5.23;;;;;;;;;;10857592;26;20076;-66
2024/04/11 17:38:09;;;;;;;10.65;4.97;;;;;;;;;;10846019;26;20764;-65
2024/04/11 17:43:17;;;;;;;11.75;4.93;;;;;;;;;;10844641;26;20031;-66
2024/04/11 17:48:16;;;;;;;8.20;4.27;;;;;;;;;;10847188;26;20005;-65
2024/04/11 17:53:10;;;;;;;12.18;5.90;;;;;;;;;;10840898;26;20003;-66
2024/04/11 17:58:09;;;;;;;7.85;5.15;;;;;;;;;;10843442;26;20011;-65
2024/04/11 18:03:06;;;;;;;7.65;5.68;;;;;;;;;;10849204;26;20003;-66
2024/04/11 18:08:04;;;;;;;9.38;5.32;;;;;;;;;;10858913;26;20003;-66
2024/04/11 18:12:57;;;;;;;7.35;5.13;;;;;;;;;;10867780;26;20077;-65
2024/04/11 18:17:53;;;;;;;11.70;6.10;;;;;;;;;;10861087;26;20431;-66
2024/04/11 18:22:48;;;;;;;8.75;4.82;;;;;;;;;;10863871;26;20080;-66
2024/04/11 18:27:44;;;;;;;14.55;5.95;;;;;;;;;;10856500;26;20017;-66
2024/04/11 18:32:40;;;;;;;12.55;6.55;;;;;;;;;;10872837;26;20017;-66
2024/04/11 18:37:38;;;;;;;11.38;6.10;;;;;;;;;;10867244;26;20011;-67
2024/04/11 18:42:40;;;;;;;8.90;6.00;;;;;;;;;;10872132;26;20009;-66
2024/04/11 18:47:42;;;;;;;9.50;6.28;;;;;;;;;;10857405;26;20713;-66
2024/04/11 18:52:36;;;;;;;8.32;5.90;;;;;;;;;;10866136;26;20462;-67
2024/04/11 18:57:31;;;;;;;7.85;6.28;;;;;;;;;;10858074;26;20127;-67
2024/04/11 19:02:32;;;;;;;12.02;6.88;;;;;;;;;;10856279;26;20002;-66
2024/04/11 19:07:34;;;;;;;9.05;5.97;;;;;;;;;;10857490;26;20044;-67
2024/04/11 19:12:35;;;;;;;7.47;5.75;;;;;;;;;;10880924;26;20015;-66
2024/04/11 19:17:52;;;;;;;7.85;5.68;;;;;;;;;;10855740;26;20448;-67
2024/04/11 19:22:55;;;;;;;9.65;5.28;;;;;;;;;;10861658;26;20006;-66
2024/04/11 19:27:52;;;;;;;6.20;5.60;;;;;;;;;;10857853;26;20447;-66
2024/04/11 19:32:50;;;;;;;7.70;5.22;;;;;;;;;;10872978;26;20002;-67
2024/04/11 19:37:47;;;;;;;11.30;6.22;;;;;;;;;;10847642;26;20003;-66
2024/04/11 19:42:45;;;;;;;6.80;5.88;;;;;;;;;;10882919;26;20013;-66
2024/04/11 19:47:43;;;;;;;13.63;6.27;;;;;;;;;;10898605;26;20015;-67
2024/04/11 19:52:37;;;;;;;8.73;6.00;;;;;;;;;;10901316;26;20013;-66
2024/04/11 19:57:32;;;;;;;9.82;6.65;;;;;;;;;;10897794;26;20017;-66
2024/04/11 20:02:35;;;;;;;16.30;6.93;;;;;;;;;;10882485;26;20021;-68
2024/04/11 20:07:40;;;;;;;14.10;7.53;;;;;;;;;;10887798;26;20003;-67
2024/04/11 20:12:40;;;;;;;11.77;6.60;;;;;;;;;;10906828;26;20013;-68
2024/04/11 20:17:37;;;;;;;7.78;6.45;;;;;;;;;;10905091;26;20003;-68
2024/04/11 20:22:38;;;;;;;9.55;6.65;;;;;;;;;;10904911;26;20079;-67
2024/04/11 20:27:34;;;;;;;6.80;5.75;;;;;;;;;;10902226;26;20104;-66
2024/04/11 20:32:29;;;;;;;7.00;6.30;;;;;;;;;;10896585;26;20079;-68
2024/04/11 20:37:23;;;;;;;6.57;5.90;;;;;;;;;;10905229;26;20003;-67
2024/04/11 20:47:47;;;;;;;10.30;5.95;;;;;;;;;;10899180;26;20015;-65
2024/04/11 21:34:25;;;;;;;8.00;7.10;;;;;;;;;;10884257;26;20017;-67
2024/04/11 21:39:20;;;;;;;8.23;6.18;;;;;;;;;;10889116;26;20113;-66
2024/04/11 21:44:16;;;;;;;7.78;6.13;;;;;;;;;;10886309;26;20039;-66
2024/04/11 21:49:13;;;;;;;7.30;6.18;;;;;;;;;;10901678;26;20011;-66
2024/04/11 21:54:08;;;;;;;;;;;;;;;;;;10908827;26;20017;-67
2024/04/11 21:59:05;;;;;;;6.35;5.75;;;;;;;;;;10909621;26;19931;-66
2024/04/11 22:04:07;;;;;;;7.35;5.65;;;;;;;;;;10909111;26;20015;-66
2024/04/11 22:09:11;;;;;;;8.10;6.15;;;;;;;;;;10890953;26;20006;-65
2024/04/11 22:14:08;;;;;;;14.48;6.35;;;;;;;;;;10902900;26;20382;-66
2024/04/11 22:19:02;;;;;;;14.23;6.05;;;;;;;;;;10854211;26;20002;-67
2024/04/11 22:23:59;;;;;;;8.07;6.07;;;;;;;;;;10867672;26;20327;-66
2024/04/11 22:28:53;;;;;;;7.90;5.43;;;;;;;;;;10873398;26;20080;-65
2024/04/11 22:33:49;;;;;;;7.55;6.47;;;;;;;;;;10864216;26;20003;-66
2024/04/11 22:38:50;;;;;;;7.63;6.32;;;;;;;;;;10871538;26;20004;-67
2024/04/11 22:43:44;;;;;;;9.40;6.53;;;;;;;;;;10861395;26;20465;-66
2024/04/11 22:48:43;;;;;;;11.50;6.78;;;;;;;;;;10853685;26;20330;-66
2024/04/11 22:53:38;;;;;;;11.63;6.82;;;;;;;;;;10867941;26;20080;-66
2024/04/11 22:58:33;;;;;;;8.10;6.93;;;;;;;;;;10861954;26;20003;-66
2024/04/11 23:03:27;;;;;;;16.58;6.90;;;;;;;;;;10856911;26;20437;-66
2024/04/11 23:08:21;;;;;;;10.23;7.10;;;;;;;;;;10849344;26;20366;-66
2024/04/11 23:13:16;;;;;;;9.23;6.07;;;;;;;;;;10848153;26;20019;-65
2024/04/11 23:18:11;;;;;;;7.72;6.90;;;;;;;;;;10839235;26;20053;-65
2024/04/11 23:23:21;;;;;;;8.95;7.32;;;;;;;;;;10849196;26;20081;-67
2024/04/11 23:28:16;;;;;;;8.98;5.57;;;;;;;;;;10853962;26;20329;-65
2024/04/11 23:33:20;;;;;;;8.63;6.32;;;;;;;;;;10842680;26;20146;-66
2024/04/11 23:38:15;;;;;;;9.75;6.22;;;;;;;;;;10854896;26;20018;-66
2024/04/11 23:43:10;;;;;;;7.82;6.72;;;;;;;;;;10858386;26;20014;-66
2024/04/11 23:48:23;;;;;;;7.38;6.40;;;;;;;;;;10857542;26;20018;-66
2024/04/11 23:53:27;;;;;;;7.18;6.22;;;;;;;;;;10846042;26;20036;-65
2024/04/11 23:58:41;;;;;;;8.05;6.10;;;;;;;;;;10848276;26;20017;-66
